createdAt,value
2023-05-18T00:02:08.323Z,8.92
2023-05-18T00:04:35.906Z,8.87
2023-05-18T00:07:04.246Z,8.89
2023-05-18T00:09:32.442Z,8.90
2023-05-18T00:11:59.814Z,8.87
2023-05-18T00:14:26.825Z,8.81
2023-05-18T00:16:54.053Z,8.78
2023-05-18T00:19:22.239Z,8.72
2023-05-18T00:21:48.981Z,8.67
2023-05-18T00:24:15.692Z,8.65
2023-05-18T00:26:46.821Z,8.69
2023-05-18T00:29:13.650Z,8.77
2023-05-18T00:31:40.592Z,8.78
2023-05-18T00:34:09.224Z,8.71
2023-05-18T00:36:36.744Z,8.59
2023-05-18T00:39:04.440Z,8.52
2023-05-18T00:41:33.513Z,8.46
2023-05-18T00:44:00.313Z,8.49
2023-05-18T00:46:28.181Z,8.42
2023-05-18T00:48:55.443Z,8.38
2023-05-18T00:51:23.238Z,8.42
2023-05-18T00:53:51.451Z,8.38
2023-05-18T00:56:18.305Z,8.43
2023-05-18T00:58:45.027Z,8.38
2023-05-18T01:01:12.615Z,8.35
2023-05-18T01:03:39.392Z,8.31
2023-05-18T01:06:06.986Z,8.29
2023-05-18T01:08:34.724Z,8.33
2023-05-18T01:11:11.889Z,8.40
2023-05-18T01:13:50.238Z,8.36
2023-05-18T01:16:22.585Z,8.32
2023-05-18T01:19:03.498Z,8.37
2023-05-18T01:21:42.263Z,8.31
2023-05-18T01:24:27.020Z,8.25
2023-05-18T01:26:54.730Z,8.28
2023-05-18T01:29:21.575Z,8.27
2023-05-18T01:31:48.305Z,8.32
2023-05-18T01:34:14.967Z,8.37
2023-05-18T01:36:41.714Z,8.33
2023-05-18T01:39:09.444Z,8.29
2023-05-18T01:41:39.796Z,8.36
2023-05-18T01:44:09.415Z,8.33
2023-05-18T01:46:59.931Z,8.33
2023-05-18T01:49:39.936Z,8.25
2023-05-18T01:52:10.299Z,8.14
2023-05-18T01:54:37.558Z,8.08
2023-05-18T01:59:33.534Z,8.08
2023-05-18T02:02:01.252Z,8.13
2023-05-18T02:04:28.230Z,8.08
2023-05-18T02:06:55.365Z,7.97
2023-05-18T02:09:22.638Z,7.91
2023-05-18T02:11:49.455Z,7.91
2023-05-18T02:14:16.150Z,7.90
2023-05-18T02:16:42.889Z,7.86
2023-05-18T02:19:09.707Z,7.85
2023-05-18T02:21:36.403Z,7.81
2023-05-18T02:24:04.018Z,7.77
2023-05-18T02:26:33.417Z,7.83
2023-05-18T02:29:00.073Z,7.82
2023-05-18T02:31:26.747Z,7.77
2023-05-18T02:33:53.457Z,7.76
2023-05-18T02:36:20.160Z,7.79
2023-05-18T02:38:46.863Z,7.72
2023-05-18T02:41:13.515Z,7.74
2023-05-18T02:43:40.172Z,7.72
2023-05-18T02:46:06.941Z,7.70
2023-05-18T02:48:33.735Z,7.72
2023-05-18T02:51:00.482Z,7.64
2023-05-18T02:53:27.401Z,7.62
2023-05-18T02:55:54.847Z,7.58
2023-05-18T02:58:21.574Z,7.57
2023-05-18T03:00:48.945Z,7.49
2023-05-18T03:03:15.883Z,7.56
2023-05-18T03:05:42.840Z,7.50
2023-05-18T03:08:09.493Z,7.53
2023-05-18T03:10:36.989Z,7.54
2023-05-18T03:13:06.844Z,7.57
2023-05-18T03:15:33.662Z,7.52
2023-05-18T03:18:00.533Z,7.57
2023-05-18T03:20:27.275Z,7.53
2023-05-18T03:22:54.110Z,7.62
2023-05-18T03:25:21.495Z,7.55
2023-05-18T03:27:48.374Z,7.39
2023-05-18T03:30:15.073Z,7.40
2023-05-18T03:32:42.119Z,7.39
2023-05-18T03:35:09.240Z,7.47
2023-05-18T03:37:36.190Z,7.43
2023-05-18T03:40:10.559Z,7.46
2023-05-18T03:42:37.683Z,7.54
2023-05-18T03:45:04.723Z,7.60
2023-05-18T03:47:31.361Z,7.56
2023-05-18T03:49:58.047Z,7.55
2023-05-18T03:52:24.746Z,7.64
2023-05-18T03:54:51.527Z,7.49
2023-05-18T03:57:18.402Z,7.41
2023-05-18T03:59:45.706Z,7.48
2023-05-18T04:02:12.633Z,7.54
2023-05-18T04:04:40.112Z,7.58
2023-05-18T04:07:06.746Z,7.69
2023-05-18T04:09:33.618Z,7.83
2023-05-18T04:12:00.270Z,7.84
2023-05-18T04:14:26.912Z,8.14
2023-05-18T04:16:54.429Z,7.99
2023-05-18T04:19:21.444Z,7.99
2023-05-18T04:21:48.295Z,8.05
2023-05-18T04:24:15.326Z,8.08
2023-05-18T04:26:42.343Z,7.98
2023-05-18T04:29:09.022Z,7.83
2023-05-18T04:31:36.006Z,7.85
2023-05-18T04:34:03.066Z,8.13
2023-05-18T04:36:29.725Z,7.91
2023-05-18T04:38:57.282Z,7.82
2023-05-18T04:41:24.797Z,7.79
2023-05-18T04:43:52.492Z,7.93
2023-05-18T04:46:19.379Z,7.86
2023-05-18T04:48:46.120Z,8.05
2023-05-18T04:51:12.776Z,8.28
2023-05-18T04:53:39.389Z,8.32
2023-05-18T04:56:06.517Z,8.21
2023-05-18T04:58:34.729Z,8.09
2023-05-18T05:01:01.432Z,8.29
2023-05-18T05:03:28.185Z,8.12
2023-05-18T05:05:54.954Z,8.30
2023-05-18T05:08:21.638Z,8.42
2023-05-18T05:10:48.291Z,8.49
2023-05-18T05:13:14.953Z,8.66
2023-05-18T05:15:41.672Z,8.63
2023-05-18T05:18:08.382Z,8.82
2023-05-18T05:20:35.166Z,9.19
2023-05-18T05:23:01.884Z,9.13
2023-05-18T05:25:28.859Z,9.28
2023-05-18T05:27:55.750Z,9.00
2023-05-18T05:30:22.451Z,8.94
2023-05-18T05:32:49.209Z,9.00
2023-05-18T05:35:15.893Z,9.23
2023-05-18T05:37:42.558Z,9.32
2023-05-18T05:40:09.683Z,9.36
2023-05-18T05:42:36.584Z,9.51
2023-05-18T05:45:03.446Z,9.70
2023-05-18T05:47:32.895Z,9.63
2023-05-18T05:49:59.567Z,9.80
2023-05-18T05:52:26.378Z,9.67
2023-05-18T05:54:53.065Z,9.84
2023-05-18T05:57:19.811Z,9.84
2023-05-18T05:59:49.394Z,10.26
2023-05-18T06:02:16.033Z,10.52
2023-05-18T06:04:42.757Z,10.56
2023-05-18T06:07:09.380Z,10.48
2023-05-18T06:09:36.049Z,10.03
2023-05-18T06:12:02.719Z,10.25
2023-05-18T06:14:29.340Z,10.48
2023-05-18T06:16:56.034Z,10.68
2023-05-18T06:19:22.960Z,10.68
2023-05-18T06:21:49.733Z,10.94
2023-05-18T06:24:16.497Z,10.84
2023-05-18T06:26:43.118Z,11.32
2023-05-18T06:29:12.335Z,11.87
2023-05-18T06:31:39.135Z,12.32
2023-05-18T06:34:05.878Z,12.47
2023-05-18T06:36:32.587Z,11.98
2023-05-18T06:38:59.207Z,11.68
2023-05-18T06:41:25.901Z,11.94
2023-05-18T06:43:52.604Z,12.29
2023-05-18T06:46:24.944Z,12.97
2023-05-18T06:48:52.104Z,13.88
2023-05-18T06:51:18.868Z,15.37
2023-05-18T06:53:45.639Z,15.81
2023-05-18T06:56:12.543Z,15.76
2023-05-18T06:58:39.976Z,14.19
2023-05-18T07:01:06.656Z,13.18
2023-05-18T07:03:33.610Z,13.57
2023-05-18T07:06:00.276Z,14.39
2023-05-18T07:08:26.998Z,15.98
2023-05-18T07:10:56.893Z,17.77
2023-05-18T07:13:24.350Z,19.22
2023-05-18T07:15:50.995Z,18.00
2023-05-18T07:18:18.794Z,16.65
2023-05-18T07:20:45.418Z,16.01
2023-05-18T07:23:13.341Z,15.93
2023-05-18T07:25:40.095Z,15.56
2023-05-18T07:28:09.750Z,14.98
2023-05-18T07:30:36.424Z,14.47
2023-05-18T07:33:03.213Z,14.32
2023-05-18T07:35:33.146Z,14.97
2023-05-18T07:37:59.920Z,15.58
2023-05-18T07:40:26.640Z,15.44
2023-05-18T07:42:53.307Z,15.58
2023-05-18T07:45:21.930Z,15.78
2023-05-18T07:47:48.789Z,16.03
2023-05-18T07:50:15.559Z,15.79
2023-05-18T07:52:42.231Z,15.80
2023-05-18T07:55:11.439Z,15.80
2023-05-18T07:57:38.181Z,14.78
2023-05-18T08:00:05.417Z,14.83
2023-05-18T08:02:33.849Z,14.94
2023-05-18T08:05:03.527Z,14.84
2023-05-18T08:07:31.591Z,14.51
2023-05-18T08:09:58.521Z,13.82
2023-05-18T08:12:25.171Z,14.05
2023-05-18T08:14:51.805Z,14.68
2023-05-18T08:17:18.512Z,15.07
2023-05-18T08:19:45.223Z,15.30
2023-05-18T08:22:11.856Z,15.86
2023-05-18T08:24:38.526Z,16.30
2023-05-18T08:27:05.264Z,16.62
2023-05-18T08:29:31.918Z,16.56
2023-05-18T08:31:58.636Z,16.77
2023-05-18T08:34:25.321Z,16.74
2023-05-18T08:36:52.024Z,16.83
2023-05-18T08:39:18.748Z,16.90
2023-05-18T08:42:01.102Z,17.30
2023-05-18T08:44:34.730Z,18.88
2023-05-18T08:47:03.143Z,20.21
2023-05-18T08:49:30.937Z,19.85
2023-05-18T08:52:00.909Z,19.80
2023-05-18T08:54:27.451Z,19.87
2023-05-18T08:56:54.630Z,19.66
2023-05-18T08:59:26.857Z,19.78
2023-05-18T09:01:53.515Z,19.86
2023-05-18T09:04:21.126Z,19.94
2023-05-18T09:06:48.578Z,19.75
2023-05-18T09:09:15.648Z,19.67
2023-05-18T09:11:42.625Z,19.63
2023-05-18T09:14:09.314Z,20.33
2023-05-18T09:16:36.064Z,20.11
2023-05-18T09:19:03.985Z,19.75
2023-05-18T09:21:31.903Z,19.63
2023-05-18T09:24:00.446Z,19.23
2023-05-18T09:26:27.066Z,18.90
2023-05-18T09:28:54.396Z,18.53
2023-05-18T09:31:22.287Z,18.74
2023-05-18T09:33:49.236Z,19.09
2023-05-18T09:36:16.327Z,18.97
2023-05-18T09:38:45.336Z,18.85
2023-05-18T09:41:16.352Z,18.94
2023-05-18T09:43:47.919Z,19.23
2023-05-18T09:46:14.707Z,19.55
2023-05-18T09:48:43.550Z,19.59
2023-05-18T09:51:14.057Z,19.42
2023-05-18T09:53:40.705Z,19.50
2023-05-18T09:56:10.290Z,19.17
2023-05-18T09:58:37.981Z,19.02
2023-05-18T10:01:04.957Z,18.93
2023-05-18T10:03:40.705Z,18.77
2023-05-18T10:06:08.056Z,18.72
2023-05-18T10:08:35.619Z,18.51
2023-05-18T10:11:03.100Z,18.66
2023-05-18T10:13:30.596Z,19.03
2023-05-18T10:16:04.944Z,19.32
2023-05-18T10:18:36.221Z,19.53
2023-05-18T10:21:04.949Z,19.86
2023-05-18T10:23:32.919Z,19.98
2023-05-18T10:26:00.219Z,20.47
2023-05-18T10:28:47.600Z,20.42
2023-05-18T10:31:16.394Z,20.32
2023-05-18T10:33:44.072Z,20.34
2023-05-18T10:36:10.894Z,20.07
2023-05-18T10:38:38.139Z,19.89
2023-05-18T10:41:05.705Z,20.09
2023-05-18T10:43:33.630Z,20.10
2023-05-18T10:46:01.282Z,20.26
2023-05-18T10:48:29.823Z,20.36
2023-05-18T10:50:59.631Z,20.40
2023-05-18T10:53:27.824Z,20.19
2023-05-18T10:55:55.034Z,19.91
2023-05-18T10:58:26.351Z,19.52
2023-05-18T11:00:56.247Z,19.37
2023-05-18T11:03:22.772Z,19.14
2023-05-18T11:06:10.541Z,19.04
2023-05-18T11:08:44.236Z,19.07
2023-05-18T11:11:10.901Z,19.12
2023-05-18T11:13:38.928Z,19.14
2023-05-18T11:16:08.937Z,19.26
2023-05-18T11:18:38.925Z,19.53
2023-05-18T11:21:20.937Z,19.86
2023-05-18T11:24:18.542Z,20.10
2023-05-18T11:26:47.034Z,20.31
2023-05-18T11:29:30.840Z,20.06
2023-05-18T11:31:57.677Z,19.76
2023-05-18T11:34:45.055Z,19.59
2023-05-18T11:37:16.633Z,19.34
2023-05-18T11:40:00.341Z,18.89
2023-05-18T11:42:34.085Z,19.08
2023-05-18T11:45:11.547Z,19.19
2023-05-18T11:47:42.087Z,19.22
2023-05-18T11:50:09.992Z,19.48
2023-05-18T11:52:47.244Z,20.12
2023-05-18T11:55:15.300Z,20.52
2023-05-18T11:57:49.115Z,20.67
2023-05-18T12:00:23.561Z,20.87
2023-05-18T12:02:50.529Z,21.09
2023-05-18T12:05:17.510Z,21.16
2023-05-18T12:07:44.573Z,20.97
2023-05-18T12:10:12.919Z,19.97
2023-05-18T12:12:40.075Z,19.46
2023-05-18T12:15:10.788Z,20.11
2023-05-18T12:17:45.627Z,20.26
2023-05-18T12:20:13.595Z,20.51
2023-05-18T12:22:41.566Z,19.86
2023-05-18T12:25:08.700Z,19.89
2023-05-18T12:27:39.591Z,19.76
2023-05-18T12:30:10.098Z,19.91
2023-05-18T12:32:36.797Z,19.84
2023-05-18T12:35:04.358Z,19.68
2023-05-18T12:37:38.075Z,19.36
2023-05-18T12:40:14.207Z,19.40
2023-05-18T12:42:50.617Z,19.49
2023-05-18T12:45:17.292Z,19.50
2023-05-18T12:47:45.103Z,19.35
2023-05-18T12:50:11.828Z,19.50
2023-05-18T12:52:39.847Z,19.70
2023-05-18T12:55:08.562Z,19.74
2023-05-18T12:57:37.366Z,19.98
2023-05-18T13:00:04.461Z,19.78
2023-05-18T13:02:36.107Z,19.68
2023-05-18T13:05:06.276Z,19.80
2023-05-18T13:07:35.746Z,19.83
2023-05-18T13:10:05.875Z,19.94
2023-05-18T13:12:56.634Z,19.86
2023-05-18T13:15:23.610Z,19.15
2023-05-18T13:18:02.432Z,19.54
2023-05-18T13:20:39.223Z,19.52
2023-05-18T13:23:08.506Z,19.68
2023-05-18T13:25:35.313Z,18.80
2023-05-18T13:28:06.121Z,18.83
2023-05-18T13:30:33.400Z,18.37
2023-05-18T13:33:00.435Z,18.66
2023-05-18T13:35:27.578Z,19.15
2023-05-18T13:37:57.177Z,19.74
2023-05-18T13:40:23.912Z,19.99
2023-05-18T13:42:50.547Z,19.55
2023-05-18T13:45:17.220Z,19.85
2023-05-18T13:47:44.067Z,20.01
2023-05-18T13:50:10.758Z,19.31
2023-05-18T13:52:37.498Z,18.97
2023-05-18T13:55:08.206Z,18.82
2023-05-18T13:57:36.011Z,18.73
2023-05-18T14:00:03.451Z,18.85
2023-05-18T14:02:30.144Z,18.99
2023-05-18T14:04:56.807Z,18.57
2023-05-18T14:07:23.437Z,18.54
2023-05-18T14:09:50.445Z,18.43
2023-05-18T14:12:17.080Z,18.23
2023-05-18T14:14:43.727Z,17.85
2023-05-18T14:17:11.447Z,18.25
2023-05-18T14:19:40.142Z,18.26
2023-05-18T14:22:07.337Z,18.36
2023-05-18T14:24:33.976Z,18.76
2023-05-18T14:27:00.673Z,19.22
2023-05-18T14:29:27.364Z,19.28
2023-05-18T14:31:53.984Z,19.38
2023-05-18T14:34:20.692Z,19.42
2023-05-18T14:36:47.351Z,19.23
2023-05-18T14:39:16.331Z,19.17
2023-05-18T14:41:43.132Z,17.63
2023-05-18T14:44:12.942Z,17.31
2023-05-18T14:46:40.215Z,17.13
2023-05-18T14:49:07.353Z,17.77
2023-05-18T14:51:34.072Z,17.14
2023-05-18T14:54:08.129Z,17.23
2023-05-18T14:56:34.800Z,17.74
2023-05-18T14:59:01.934Z,17.84
2023-05-18T15:01:28.758Z,17.75
2023-05-18T15:03:55.549Z,17.96
2023-05-18T15:06:22.340Z,17.15
2023-05-18T15:08:49.005Z,17.06
2023-05-18T15:11:15.688Z,16.44
2023-05-18T15:13:43.683Z,16.19
2023-05-18T15:16:11.211Z,15.90
2023-05-18T15:18:37.938Z,16.12
2023-05-18T15:21:04.794Z,16.30
2023-05-18T15:23:31.471Z,16.55
2023-05-18T15:25:58.196Z,16.67
2023-05-18T15:28:24.901Z,16.97
2023-05-18T15:30:51.538Z,16.54
2023-05-18T15:33:18.220Z,16.45
2023-05-18T15:35:44.946Z,16.42
2023-05-18T15:38:14.210Z,16.22
2023-05-18T15:40:43.752Z,16.16
2023-05-18T15:43:10.391Z,15.75
2023-05-18T15:45:37.124Z,15.77
2023-05-18T15:48:03.987Z,15.58
2023-05-18T15:50:30.888Z,15.33
2023-05-18T15:52:57.751Z,15.62
2023-05-18T15:55:24.395Z,15.69
2023-05-18T15:57:53.594Z,15.70
2023-05-18T16:00:20.472Z,15.60
2023-05-18T16:02:47.184Z,15.40
2023-05-18T16:05:13.838Z,15.48
2023-05-18T16:07:40.602Z,15.76
2023-05-18T16:10:07.828Z,15.72
2023-05-18T16:12:34.519Z,15.86
2023-05-18T16:15:01.221Z,16.10
2023-05-18T16:17:27.928Z,15.91
2023-05-18T16:19:54.578Z,15.71
2023-05-18T16:22:23.481Z,15.64
2023-05-18T16:24:50.172Z,15.43
2023-05-18T16:27:16.817Z,15.49
2023-05-18T16:29:43.770Z,15.47
2023-05-18T16:32:10.441Z,15.54
2023-05-18T16:34:37.086Z,15.45
2023-05-18T16:37:03.845Z,15.25
2023-05-18T16:39:30.616Z,15.19
2023-05-18T16:41:57.262Z,14.91
2023-05-18T16:44:23.884Z,14.85
2023-05-18T16:46:50.624Z,14.90
2023-05-18T16:49:17.376Z,15.36
2023-05-18T16:51:44.078Z,15.40
2023-05-18T16:54:10.833Z,15.64
2023-05-18T16:56:37.510Z,15.01
2023-05-18T16:59:04.158Z,14.91
2023-05-18T17:01:30.910Z,15.06
2023-05-18T17:04:00.760Z,14.85
2023-05-18T17:06:27.569Z,14.72
2023-05-18T17:08:54.196Z,14.88
2023-05-18T17:11:20.833Z,15.02
2023-05-18T17:13:47.475Z,14.58
2023-05-18T17:16:14.285Z,14.50
2023-05-18T17:18:44.471Z,14.55
2023-05-18T17:21:11.137Z,14.54
2023-05-18T17:23:37.830Z,14.51
2023-05-18T17:26:07.003Z,14.76
2023-05-18T17:28:33.746Z,14.58
2023-05-18T17:31:00.403Z,14.46
2023-05-18T17:33:27.376Z,14.44
2023-05-18T17:35:54.087Z,14.40
2023-05-18T17:38:21.393Z,14.60
2023-05-18T17:40:51.670Z,14.48
2023-05-18T17:43:18.427Z,14.33
2023-05-18T17:45:45.113Z,14.17
2023-05-18T17:48:11.837Z,14.21
2023-05-18T17:50:38.605Z,14.21
2023-05-18T17:53:05.261Z,14.05
2023-05-18T17:55:32.039Z,13.95
2023-05-18T17:57:58.753Z,13.92
2023-05-18T18:00:25.391Z,13.73
2023-05-18T18:02:52.035Z,13.74
2023-05-18T18:05:18.716Z,13.80
2023-05-18T18:07:45.356Z,13.90
2023-05-18T18:10:14.704Z,14.14
2023-05-18T18:12:44.244Z,14.05
2023-05-18T18:15:11.386Z,14.11
2023-05-18T18:17:38.124Z,14.02
2023-05-18T18:20:05.644Z,14.09
2023-05-18T18:22:34.260Z,14.32
2023-05-18T18:25:02.326Z,13.99
2023-05-18T18:27:28.997Z,13.93
2023-05-18T18:29:55.653Z,13.93
2023-05-18T18:32:22.284Z,13.84
2023-05-18T18:34:48.977Z,13.80
2023-05-18T18:37:15.637Z,13.74
2023-05-18T18:39:42.342Z,13.82
2023-05-18T18:42:09.052Z,13.59
2023-05-18T18:44:35.681Z,13.42
2023-05-18T18:47:02.360Z,13.39
2023-05-18T18:49:29.088Z,13.38
2023-05-18T18:51:55.746Z,13.26
2023-05-18T18:54:22.442Z,13.28
2023-05-18T18:56:52.227Z,13.19
2023-05-18T18:59:18.888Z,13.27
2023-05-18T19:01:45.582Z,13.14
2023-05-18T19:04:12.215Z,13.05
2023-05-18T19:06:38.886Z,13.14
2023-05-18T19:09:05.509Z,12.93
2023-05-18T19:11:32.140Z,12.95
2023-05-18T19:13:58.755Z,12.98
2023-05-18T19:16:25.405Z,12.97
2023-05-18T19:18:52.112Z,12.83
2023-05-18T19:21:20.923Z,12.89
2023-05-18T19:23:47.590Z,12.98
2023-05-18T19:26:14.234Z,12.88
2023-05-18T19:28:42.936Z,12.83
2023-05-18T19:31:12.609Z,12.88
2023-05-18T19:33:41.439Z,12.85
2023-05-18T19:36:08.094Z,12.79
2023-05-18T19:38:34.729Z,12.83
2023-05-18T19:41:01.387Z,12.94
2023-05-18T19:43:29.393Z,12.90
2023-05-18T19:45:56.128Z,12.72
2023-05-18T19:48:22.778Z,12.63
2023-05-18T19:50:52.530Z,12.51
2023-05-18T19:53:19.272Z,12.06
2023-05-18T19:55:47.508Z,11.61
2023-05-18T19:58:15.433Z,11.30
2023-05-18T20:00:44.687Z,10.90
2023-05-18T20:03:11.374Z,10.64
2023-05-18T20:05:38.062Z,10.58
2023-05-18T20:08:04.850Z,10.63
2023-05-18T20:10:31.684Z,10.66
2023-05-18T20:12:58.454Z,10.76
2023-05-18T20:15:25.341Z,10.77
2023-05-18T20:17:54.184Z,10.77
2023-05-18T20:20:23.418Z,10.73
2023-05-18T20:22:50.095Z,10.67
2023-05-18T20:25:16.761Z,10.51
2023-05-18T20:27:43.488Z,10.41
2023-05-18T20:30:11.355Z,10.36
2023-05-18T20:32:38.121Z,10.32
2023-05-18T20:35:05.165Z,10.47
2023-05-18T20:37:31.810Z,10.52
2023-05-18T20:39:58.422Z,10.56
2023-05-18T20:42:38.876Z,10.55
2023-05-18T20:45:06.826Z,10.63
2023-05-18T20:47:33.941Z,10.67
2023-05-18T20:50:02.494Z,10.71
2023-05-18T20:52:29.204Z,10.66
2023-05-18T20:54:55.831Z,10.60
2023-05-18T20:57:23.118Z,10.67
2023-05-18T20:59:49.752Z,10.65
2023-05-18T21:02:16.363Z,10.62
2023-05-18T21:04:43.005Z,10.67
2023-05-18T21:07:09.657Z,10.69
2023-05-18T21:09:36.332Z,10.68
2023-05-18T21:12:03.045Z,10.67
2023-05-18T21:14:29.685Z,10.83
2023-05-18T21:16:56.421Z,10.89
2023-05-18T21:19:23.182Z,10.99
2023-05-18T21:21:49.939Z,11.14
2023-05-18T21:24:16.584Z,11.16
2023-05-18T21:26:43.289Z,11.30
2023-05-18T21:29:09.997Z,11.42
2023-05-18T21:31:36.716Z,11.81
2023-05-18T21:34:03.415Z,11.91
2023-05-18T21:36:30.281Z,12.07
2023-05-18T21:38:56.901Z,12.12
2023-05-18T21:41:23.525Z,12.25
2023-05-18T21:43:50.230Z,11.98
2023-05-18T21:46:19.956Z,12.13
2023-05-18T21:48:46.610Z,12.07
2023-05-18T21:51:13.269Z,11.88
2023-05-18T21:53:39.894Z,11.75
2023-05-18T21:56:06.766Z,11.70
2023-05-18T21:58:33.403Z,11.57
2023-05-18T22:01:00.097Z,11.78
2023-05-18T22:03:26.759Z,11.87
2023-05-18T22:05:53.415Z,11.78
2023-05-18T22:08:20.099Z,11.84
2023-05-18T22:10:46.734Z,12.08
2023-05-18T22:13:13.409Z,12.31
2023-05-18T22:15:40.490Z,12.41
2023-05-18T22:18:07.427Z,12.45
2023-05-18T22:20:34.349Z,12.53
2023-05-18T22:23:01.143Z,12.59
2023-05-18T22:25:27.787Z,12.46
2023-05-18T22:27:54.668Z,12.55
2023-05-18T22:30:21.725Z,12.63
2023-05-18T22:32:51.354Z,12.72
2023-05-18T22:35:18.119Z,12.73
2023-05-18T22:37:45.658Z,12.77
2023-05-18T22:40:12.734Z,12.80
2023-05-18T22:42:39.383Z,12.83
2023-05-18T22:45:06.550Z,12.69
2023-05-18T22:47:33.243Z,12.66
2023-05-18T22:49:59.876Z,12.47
2023-05-18T22:52:26.621Z,12.60
2023-05-18T22:54:53.333Z,12.71
2023-05-18T22:57:20.060Z,12.80
2023-05-18T22:59:46.849Z,12.64
2023-05-18T23:02:13.710Z,12.34
2023-05-18T23:04:40.470Z,12.25
2023-05-18T23:07:07.417Z,12.33
2023-05-18T23:09:34.090Z,12.13
2023-05-18T23:12:01.016Z,12.04
2023-05-18T23:14:30.990Z,12.10
2023-05-18T23:16:57.735Z,12.15
2023-05-18T23:19:24.678Z,12.22
2023-05-18T23:21:51.427Z,12.25
2023-05-18T23:24:18.049Z,11.90
2023-05-18T23:26:44.834Z,11.85
2023-05-18T23:29:11.596Z,11.81
2023-05-18T23:31:38.386Z,11.60
2023-05-18T23:34:05.299Z,11.37
2023-05-18T23:36:32.870Z,11.53
2023-05-18T23:38:59.629Z,11.79
2023-05-18T23:41:28.079Z,12.04
2023-05-18T23:43:55.666Z,12.11
2023-05-18T23:46:23.191Z,12.24
2023-05-18T23:48:50.546Z,12.43
2023-05-18T23:51:18.382Z,12.52
2023-05-18T23:53:45.704Z,12.53
2023-05-18T23:56:12.770Z,12.65
2023-05-18T23:58:43.546Z,12.68
